Latest Weather Observations for Pallamana

IDS60801

Issued at 5:01 pm CST Sunday 30 August 2015 (issued every 30 minutes, with the page automatically refreshed every 10 minutes)

About weather observations | Map of weather stations | Latest weather observations for SA | Other Formats
Station Details ID: 024584 Name: PALLAMANA AERODROME Lat: -35.06 Lon: 139.23 Height: 45.0 m
Data from the previous 72 hours. | See also: Recent months at Pallamana
Date/Time
CST
Temp
°C
App
Temp
°C
Dew
Point
Rel
Hum
%
Delta-T
°C
Wind Press
QNH
hPa
Press
MSL
hPa
Rain
since 9 am
mm
Dir
 
Spd
km/h
Gust
km/h
Spd
kts
Gust
kts
30/05:00pm 14.5 11.6 2.5 44 5.3 ENE 7 11 4 6 1022.9 1023.0 0.0
30/04:30pm 15.2 12.2 1.7 40 5.9 NNE 7 11 4 6 1022.9 1023.0 0.0
30/04:00pm 15.3 11.9 1.6 39 6.0 NNE 9 13 5 7 1023.1 1023.2 0.0
30/03:30pm 15.1 12.1 2.2 41 5.7 E 7 13 4 7 1023.1 1023.2 0.0
30/03:00pm 15.7 12.8 1.5 38 6.2 N 6 13 3 7 1023.6 1023.7 0.0
30/02:30pm 15.4 12.0 2.0 40 5.9 NNW 9 15 5 8 1023.9 1024.0 0.0
30/02:00pm 15.2 11.8 1.7 40 5.9 NNW 9 13 5 7 1024.2 1024.3 0.0
30/01:30pm 14.7 11.4 2.2 43 5.5 NNW 9 15 5 8 1024.7 1024.8 0.0
30/01:00pm 14.5 11.2 2.5 44 5.3 NE 9 15 5 8 1025.2 1025.3 0.0
30/12:30pm 13.5 10.6 2.6 47 4.8 ENE 7 15 4 8 1025.7 1025.8 0.0
30/12:00pm 13.7 10.6 3.4 50 4.6 NNE 9 20 5 11 1026.0 1026.1 0.0
30/11:30am 12.8 8.5 3.3 52 4.2 NE 15 20 8 11 1026.6 1026.7 0.0
30/11:00am 12.3 8.6 4.3 58 3.6 NE 13 19 7 10 1027.0 1027.1 0.0
30/10:30am 11.0 6.5 4.3 63 3.0 NNE 17 22 9 12 1027.5 1027.6 0.0
30/10:00am 10.2 6.1 4.1 66 2.7 NE 15 19 8 10 1027.8 1027.9 0.0
30/09:30am 8.8 5.4 4.0 72 2.1 NNE 11 19 6 10 1028.0 1028.1 0.0
30/09:00am 7.7 5.2 4.5 80 1.4 NE 7 9 4 5 1028.1 1028.2 0.2
30/08:30am 6.3 3.7 4.4 88 0.8 NE 7 9 4 5 1028.2 1028.3 0.2
30/08:00am 3.7 1.1 3.2 97 0.2 ESE 6 7 3 4 1028.2 1028.3 0.2
30/07:30am 0.0 - - - - SE 4 7 2 4 1028.1 1028.2 0.2
30/07:00am -1.7 - - - - NW 7 11 4 6 1027.9 1028.0 0.2
30/06:30am -2.0 - - - - CALM 0 0 0 0 1027.6 1027.7 0.2
30/06:00am -1.0 - - - - NW 7 9 4 5 1027.1 1027.2 0.2
30/05:30am -0.2 - 0.5 - - NNW 9 11 5 6 1027.0 1027.1 0.2
30/05:00am -0.1 - - - - WNW 4 9 2 5 1027.0 1027.1 0.2
30/04:30am -0.3 - - - - CALM 0 0 0 0 1027.0 1027.1 0.2
30/04:00am 2.5 -1.2 0.1 84 0.9 WNW 9 13 5 7 1027.1 1027.2 0.2
30/03:30am 2.2 -1.5 -0.3 83 0.9 WNW 9 13 5 7 1027.2 1027.3 0.2
30/03:00am 2.8 -0.3 0.4 84 0.9 NNW 6 9 3 5 1027.4 1027.5 0.2
30/02:30am 1.7 -1.4 0.3 90 0.5 W 6 7 3 4 1027.5 1027.6 0.2
30/02:00am 1.2 - - - - WSW 9 11 5 6 1027.8 1027.9 0.2
30/01:30am 2.3 -1.4 -0.2 83 0.9 WSW 9 13 5 7 1028.1 1028.2 0.2
30/01:00am 1.7 -2.0 -0.2 87 0.7 SSW 9 11 5 6 1028.4 1028.5 0.2
30/12:30am 1.7 -1.5 0.6 92 0.4 SW 7 11 4 6 1028.3 1028.4 0.2
30/12:00am 1.1 -2.2 -0.9 86 0.7 SW 6 9 3 5 1028.3 1028.4 0.2
 
Date/Time
CST
Temp
°C
App
Temp
°C
Dew
Point
Rel
Hum
%
Delta-T
°C
Wind Press
QNH
hPa
Press
MSL
hPa
Rain
since 9 am
mm
Dir
 
Spd
km/h
Gust
km/h
Spd
kts
Gust
kts
29/11:30pm 2.8 -0.4 -0.2 81 1.1 WSW 6 9 3 5 1028.5 1028.6 0.2
29/11:00pm 3.3 -0.3 0.6 82 1.0 WSW 9 15 5 8 1028.5 1028.6 0.2
29/10:30pm 4.5 0.7 1.7 82 1.1 WSW 11 11 6 6 1028.8 1028.9 0.2
29/10:00pm 4.5 0.6 1.4 80 1.2 SW 11 11 6 6 1028.7 1028.8 0.2
29/09:30pm 4.7 1.2 1.4 79 1.3 SSW 9 11 5 6 1028.6 1028.7 0.2
29/09:00pm 4.3 0.8 1.2 80 1.2 SSW 9 11 5 6 1028.6 1028.7 0.2
29/08:30pm 5.9 3.2 2.7 80 1.3 S 6 9 3 5 1028.4 1028.5 0.2
29/08:00pm 5.8 1.8 2.9 82 1.2 SSW 13 15 7 8 1028.2 1028.3 0.2
29/07:30pm 6.4 2.4 3.0 79 1.4 SSW 13 15 7 8 1027.9 1028.0 0.2
29/07:00pm 8.0 3.8 3.8 75 1.8 SW 15 20 8 11 1027.9 1028.0 0.2
29/06:30pm 7.6 4.7 4.4 80 1.4 SSW 9 11 5 6 1027.7 1027.8 0.2
29/06:00pm 8.7 6.4 4.9 77 1.7 SSW 6 7 3 4 1027.4 1027.5 0.2
29/05:30pm 10.1 6.8 4.7 69 2.4 S 11 13 6 7 1027.2 1027.3 0.2
29/05:00pm 10.9 6.9 4.7 65 2.8 S 15 22 8 12 1026.9 1027.0 0.2
29/04:30pm 11.7 7.9 3.8 58 3.5 S 13 19 7 10 1026.8 1026.9 0.2
29/04:00pm 12.1 9.4 3.8 57 3.7 SSE 7 13 4 7 1026.7 1026.8 0.2
29/03:30pm 12.5 9.7 2.9 52 4.2 SSW 7 13 4 7 1026.9 1027.0 0.2
29/03:00pm 12.9 10.4 3.5 53 4.2 SSW 6 9 3 5 1027.2 1027.3 0.2
29/02:30pm 12.3 8.5 3.8 56 3.8 SSE 13 19 7 10 1027.5 1027.6 0.2
29/02:00pm 13.1 9.8 2.6 49 4.6 SE 9 15 5 8 1027.3 1027.4 0.2
29/01:30pm 12.9 10.2 2.6 49 4.5 NNE 6 9 3 5 1027.6 1027.7 0.2
29/01:00pm 12.0 9.5 4.5 60 3.4 ENE 7 13 4 7 1028.2 1028.3 0.2
29/12:30pm 11.8 8.4 3.9 58 3.5 ESE 11 15 6 8 1028.7 1028.8 0.0
29/12:00pm 11.4 7.9 3.4 58 3.5 ENE 11 17 6 9 1029.2 1029.3 0.0
29/11:30am 10.0 7.4 6.3 78 1.7 ESE 9 11 5 6 1029.7 1029.8 0.0
29/11:28am 9.9 7.3 6.2 78 1.7 ESE 9 11 5 6 1029.7 1029.8 0.0
29/11:00am 9.8 7.2 6.3 79 1.6 E 9 13 5 7 1029.8 1029.9 0.0
29/10:30am 9.6 7.5 6.8 83 1.3 NNE 7 9 4 5 1029.9 1030.0 0.0
29/10:00am 9.3 7.2 6.5 83 1.3 SE 7 11 4 6 1029.9 1030.0 0.0
29/09:30am 8.4 5.5 6.4 87 0.9 SE 11 15 6 8 1030.0 1030.1 0.0
29/09:00am 8.3 5.4 6.3 87 0.9 SE 11 15 6 8 1029.8 1029.9 0.2
29/08:30am 8.0 3.9 6.2 88 0.8 SE 17 20 9 11 1029.5 1029.6 0.2
29/08:00am 7.3 3.7 6.9 97 0.2 SSE 15 19 8 10 1029.3 1029.4 0.2
29/07:56am 7.4 4.2 6.7 95 0.3 SSE 13 19 7 10 1029.2 1029.3 0.2
29/07:37am 7.0 3.4 6.6 97 0.2 SSE 15 20 8 11 1028.9 1029.0 0.2
29/07:32am 6.9 2.4 6.2 95 0.3 SSE 19 24 10 13 1028.9 1029.0 0.2
29/07:30am 6.9 2.4 6.2 95 0.3 SSE 19 24 10 13 1028.8 1028.9 0.2
29/07:00am 8.0 4.2 7.4 96 0.3 S 17 26 9 14 1028.4 1028.5 0.2
29/06:59am 8.1 4.3 7.5 96 0.3 S 17 26 9 14 1028.4 1028.5 0.2
29/06:30am 9.1 6.5 7.8 92 0.6 S 11 17 6 9 1028.0 1028.1 0.2
29/06:00am 8.9 7.2 7.6 91 0.6 SSW 6 9 3 5 1027.6 1027.7 0.2
29/05:58am 8.8 7.0 7.3 90 0.7 SSW 6 11 3 6 1027.6 1027.7 0.2
29/05:30am 9.2 6.2 7.7 90 0.7 SW 13 17 7 9 1027.5 1027.6 0.2
29/05:00am 9.1 5.3 7.6 90 0.7 WSW 17 19 9 10 1027.4 1027.5 0.2
29/04:30am 9.0 6.3 7.3 89 0.8 W 11 13 6 7 1027.4 1027.5 0.2
29/04:00am 9.1 5.7 7.6 90 0.7 WSW 15 17 8 9 1027.5 1027.6 0.2
29/03:30am 9.0 5.5 7.3 89 0.8 W 15 17 8 9 1027.5 1027.6 0.2
29/03:00am 9.0 5.9 7.3 89 0.8 W 13 15 7 8 1027.8 1027.9 0.2
29/02:30am 8.5 4.9 6.8 89 0.8 WSW 15 17 8 9 1028.0 1028.1 0.2
29/02:00am 8.3 5.4 6.3 87 0.9 WSW 11 13 6 7 1028.2 1028.3 0.2
29/01:30am 8.2 4.8 5.8 85 1.1 WSW 13 17 7 9 1028.5 1028.6 0.2
29/01:00am 7.6 5.3 5.8 88 0.8 W 7 11 4 6 1028.8 1028.9 0.2
29/12:30am 6.4 4.9 4.8 89 0.7 WSW 2 7 1 4 1028.6 1028.7 0.2
29/12:00am 6.8 4.3 4.7 86 0.9 W 7 11 4 6 1028.5 1028.6 0.2
 
Date/Time
CST
Temp
°C
App
Temp
°C
Dew
Point
Rel
Hum
%
Delta-T
°C
Wind Press
QNH
hPa
Press
MSL
hPa
Rain
since 9 am
mm
Dir
 
Spd
km/h
Gust
km/h
Spd
kts
Gust
kts
28/11:30pm 5.7 2.3 4.0 89 0.7 WSW 11 13 6 7 1028.6 1028.7 0.2
28/11:00pm 6.5 3.1 3.9 83 1.1 W 11 13 6 7 1028.7 1028.8 0.2
28/10:30pm 5.5 3.3 3.1 84 1.0 NNW 4 7 2 4 1028.9 1029.0 0.2
28/10:00pm 7.3 4.0 4.3 81 1.3 W 11 15 6 8 1028.9 1029.0 0.2
28/09:30pm 6.6 4.9 4.0 83 1.1 WSW 2 9 1 5 1028.9 1029.0 0.2
28/09:00pm 7.9 4.3 5.2 83 1.2 WSW 13 15 7 8 1028.9 1029.0 0.2
28/08:30pm 8.2 4.3 5.3 82 1.3 WSW 15 17 8 9 1028.6 1028.7 0.2
28/08:00pm 7.6 4.5 5.6 87 0.9 SW 11 13 6 7 1028.5 1028.6 0.2
28/07:30pm 5.3 3.9 3.4 87 0.8 CALM 0 0 0 0 1028.4 1028.5 0.2
28/07:00pm 6.4 2.9 3.5 82 1.2 SW 11 15 6 8 1028.3 1028.4 0.2
28/06:30pm 8.0 3.8 3.8 75 1.8 WSW 15 17 8 9 1028.0 1028.1 0.2
28/06:00pm 8.1 4.6 3.4 72 2.0 SSW 11 13 6 7 1027.9 1028.0 0.2
28/05:30pm 10.2 7.2 4.1 66 2.7 SSW 9 13 5 7 1027.9 1028.0 0.2
28/05:00pm 11.6 7.8 3.9 59 3.4 SSW 13 20 7 11 1027.7 1027.8 0.2
28/04:30pm 11.8 7.8 4.7 62 3.2 SSW 15 20 8 11 1027.7 1027.8 0.2
28/04:00pm 11.9 7.9 5.1 63 3.1 SSW 15 22 8 12 1027.6 1027.7 0.2
28/03:30pm 12.3 7.6 5.9 65 3.0 SSW 20 28 11 15 1027.7 1027.8 0.2
28/03:00pm 12.6 8.5 6.0 64 3.1 SW 17 24 9 13 1027.9 1028.0 0.2
28/02:30pm 12.5 8.1 6.6 67 2.8 SSW 19 26 10 14 1027.9 1028.0 0.2
28/02:00pm 13.1 8.6 6.8 65 3.0 S 20 30 11 16 1028.1 1028.2 0.2
28/01:30pm 12.4 7.1 7.0 69 2.6 S 24 30 13 16 1028.2 1028.3 0.2
28/01:00pm 12.8 8.7 4.4 56 3.8 S 15 20 8 11 1028.4 1028.5 0.2
28/12:30pm 12.4 9.0 5.7 63 3.1 SSE 13 17 7 9 1028.9 1029.0 0.2
28/12:00pm 12.0 8.2 6.0 66 2.8 SSE 15 24 8 13 1029.4 1029.5 0.2
28/11:30am 12.2 9.3 8.1 76 2.0 SE 13 24 7 13 1029.8 1029.9 0.2
28/11:00am 11.2 8.3 8.1 81 1.5 SSE 13 17 7 9 1030.1 1030.2 0.2
28/10:42am 10.3 7.0 8.2 87 1.0 SSE 15 24 8 13 1030.4 1030.5 0.2
28/10:30am 10.6 8.8 8.1 84 1.2 S 7 9 4 5 1030.4 1030.5 0.0
28/10:27am 10.2 8.4 7.9 86 1.1 SSW 7 9 4 5 1030.4 1030.5 0.0
28/10:14am 10.5 8.0 8.0 84 1.2 SE 11 19 6 10 1030.5 1030.6 0.0
28/10:00am 11.0 8.0 7.9 81 1.5 SE 13 17 7 9 1030.5 1030.6 0.0
28/09:30am 10.3 6.6 8.0 86 1.1 SE 17 20 9 11 1030.5 1030.6 0.0
28/09:00am 10.0 7.5 8.3 89 0.8 SSE 11 15 6 8 1030.4 1030.5 0.4
28/08:30am 9.2 6.6 7.9 92 0.6 SSE 11 13 6 7 1030.2 1030.3 0.4
28/08:00am 8.7 6.9 8.1 96 0.3 SSE 7 9 4 5 1030.0 1030.1 0.4
28/07:30am 7.5 5.4 6.6 94 0.4 WSW 7 11 4 6 1029.7 1029.8 0.4
28/07:00am 7.1 5.1 6.4 95 0.3 SSE 6 7 3 4 1029.4 1029.5 0.4
28/06:30am 7.3 4.8 6.4 94 0.4 S 9 13 5 7 1029.3 1029.4 0.4
28/06:00am 7.7 4.9 6.8 94 0.4 S 11 13 6 7 1029.0 1029.1 0.4
28/05:30am 7.0 4.8 6.1 94 0.4 S 7 9 4 5 1028.9 1029.0 0.4
28/05:00am 6.5 4.2 5.8 95 0.3 SSE 7 9 4 5 1028.6 1028.7 0.4
28/04:30am 6.1 2.9 4.9 92 0.5 SSW 11 13 6 7 1028.4 1028.5 0.4
28/04:00am 6.0 3.6 5.1 94 0.4 SSW 7 9 4 5 1028.2 1028.3 0.4
28/03:30am 6.1 3.7 5.2 94 0.4 SSW 7 9 4 5 1028.0 1028.1 0.4
28/03:00am 7.0 3.6 6.1 94 0.4 SSW 13 17 7 9 1028.1 1028.2 0.4
28/02:30am 8.2 4.7 7.3 94 0.4 SW 15 19 8 10 1028.1 1028.2 0.4
28/02:00am 7.9 4.4 7.3 96 0.3 SW 15 17 8 9 1028.1 1028.2 0.4
28/01:30am 7.6 4.0 6.9 95 0.3 SW 15 17 8 9 1028.2 1028.3 0.4
28/01:00am 8.2 4.8 7.6 96 0.3 SW 15 19 8 10 1028.3 1028.4 0.4
28/12:30am 8.1 5.0 7.2 94 0.4 SW 13 15 7 8 1028.1 1028.2 0.4
28/12:00am 8.5 4.7 7.7 95 0.4 SW 17 19 9 10 1028.1 1028.2 0.4
 
Date/Time
CST
Temp
°C
App
Temp
°C
Dew
Point
Rel
Hum
%
Delta-T
°C
Wind Press
QNH
hPa
Press
MSL
hPa
Rain
since 9 am
mm
Dir
 
Spd
km/h
Gust
km/h
Spd
kts
Gust
kts
27/11:30pm 8.9 6.0 8.1 95 0.4 SW 13 15 7 8 1028.3 1028.4 0.4
27/11:00pm 8.5 5.0 7.4 93 0.5 SW 15 19 8 10 1028.4 1028.5 0.4
27/10:44pm 8.5 5.0 7.2 91 0.6 SW 15 17 8 9 1028.4 1028.5 0.4
27/10:30pm 8.5 5.7 7.0 90 0.7 SSW 11 17 6 9 1028.4 1028.5 0.4
27/10:23pm 8.3 5.5 6.8 90 0.7 S 11 15 6 8 1028.5 1028.6 0.0
27/10:00pm 8.8 4.9 6.9 88 0.9 SW 17 22 9 12 1028.3 1028.4 0.0
27/09:30pm 8.3 3.8 6.3 87 0.9 WSW 19 22 10 12 1028.3 1028.4 0.0
27/09:00pm 8.6 5.0 6.6 87 0.9 W 15 17 8 9 1028.2 1028.3 0.0
27/08:30pm 8.7 5.5 6.8 88 0.9 W 13 17 7 9 1028.1 1028.2 0.0
27/08:00pm 8.1 4.7 6.1 87 0.9 WSW 13 15 7 8 1028.0 1028.1 0.0
27/07:30pm 8.9 5.3 6.7 86 1.0 SW 15 17 8 9 1027.8 1027.9 0.0
27/07:00pm 9.4 5.8 6.8 84 1.2 SW 15 19 8 10 1027.4 1027.5 0.0
27/06:30pm 8.3 4.1 5.9 85 1.1 SW 17 19 9 10 1027.2 1027.3 0.0
27/06:00pm 9.1 5.3 6.0 81 1.4 SSW 15 19 8 10 1026.8 1026.9 0.0
27/05:30pm 11.3 6.9 6.4 72 2.3 SSW 19 24 10 13 1026.3 1026.4 0.0

Other Formats:

Comma delimited format used in spreadsheet applications
http://www.bom.gov.au/fwo/IDS60801/IDS60801.95818.axf

JavaScript Object Notation format (JSON) in row-major order
http://www.bom.gov.au/fwo/IDS60801/IDS60801.95818.json